Time;durP1;ratioP1;P1;durP2;ratioP2;P2;SDS_P1;SDS_P2;PMS_P1;PMS_P2;Temp;Humidity;BMP_temperature;BMP_pressure;BME280_temperature;BME280_humidity;BME280_pressure;Samples;Min_cycle;Max_cycle;Signal;HPM_P1;HPM_P2
2022/01/26 00:07:20;;;;;;;40.65;15.13;;;4.70;82.30;;;;;;5015122;28;20057;-76
2022/01/26 00:09:46;;;;;;;40.13;17.77;;;4.70;82.10;;;;;;5013954;28;20034;-76
2022/01/26 00:12:12;;;;;;;37.25;15.65;;;4.70;82.10;;;;;;5015043;28;20036;-76
2022/01/26 00:14:43;;;;;;;41.38;16.77;;;4.70;82.10;;;;;;5015141;28;20026;-76
2022/01/26 00:17:11;;;;;;;36.08;16.48;;;4.70;82.00;;;;;;5014951;28;20116;-76
2022/01/26 00:19:55;;;;;;;48.42;16.52;;;4.50;81.70;;;;;;5015031;28;20018;-76
2022/01/26 00:22:43;;;;;;;37.72;15.18;;;4.50;82.30;;;;;;5014842;28;20101;-76
2022/01/26 00:28:06;;;;;;;41.80;15.98;;;4.50;82.60;;;;;;5014955;28;20504;-76
2022/01/26 00:38:42;;;;;;;39.70;15.07;;;4.50;82.80;;;;;;5014799;28;20045;-76
2022/01/26 00:41:13;;;;;;;39.25;15.65;;;4.50;82.60;;;;;;5014730;28;20026;-76
2022/01/26 00:43:48;;;;;;;36.83;15.00;;;4.50;82.10;;;;;;5013608;28;20026;-76
2022/01/26 00:46:14;;;;;;;37.10;14.02;;;4.50;82.40;;;;;;5017156;28;20164;-76
2022/01/26 00:48:41;;;;;;;44.05;16.50;;;4.50;82.40;;;;;;5018472;28;20029;-76
2022/01/26 00:51:07;;;;;;;40.33;16.20;;;4.60;82.20;;;;;;5017119;28;20033;-76
2022/01/26 00:54:00;;;;;;;39.90;15.40;;;4.60;82.20;;;;;;5033536;28;20072;-76
2022/01/26 00:56:26;;;;;;;38.47;15.23;;;4.60;81.80;;;;;;5058104;28;20491;-76
2022/01/26 00:58:52;;;;;;;44.17;16.38;;;4.50;81.90;;;;;;5033317;28;20053;-76
2022/01/26 01:01:17;;;;;;;37.05;16.27;;;4.50;82.20;;;;;;5028276;28;20044;-76
2022/01/26 01:03:45;;;;;;;38.78;15.52;;;4.50;82.50;;;;;;5034799;28;20133;-76
2022/01/26 01:06:18;;;;;;;42.65;17.88;;;4.50;82.40;;;;;;5025694;28;20033;-76
2022/01/26 01:08:46;;;;;;;37.50;14.98;;;4.60;82.30;;;;;;5038025;28;20480;-76
2022/01/26 01:11:11;;;;;;;42.58;16.20;;;4.60;81.80;;;;;;5037899;28;20021;-76
2022/01/26 01:13:40;;;;;;;40.67;15.57;;;4.50;82.00;;;;;;5036656;28;20029;-76
2022/01/26 01:16:09;;;;;;;43.15;17.33;;;4.50;82.10;;;;;;5016664;28;20084;-76
2022/01/26 01:34:04;;;;;;;40.42;16.45;;;4.60;81.80;;;;;;5017836;28;20511;-76
2022/01/26 01:36:32;;;;;;;40.75;15.65;;;4.60;81.70;;;;;;5017770;28;20128;-76
2022/01/26 01:38:58;;;;;;;44.42;16.67;;;4.60;81.90;;;;;;5016605;28;20097;-76
2022/01/26 01:41:24;;;;;;;32.67;14.98;;;4.60;81.80;;;;;;5021941;28;20562;-76
2022/01/26 01:43:49;;;;;;;35.80;14.73;;;4.60;81.80;;;;;;5037295;28;20033;-76
2022/01/26 01:46:15;;;;;;;36.28;16.13;;;4.50;81.90;;;;;;5035734;28;20025;-76
2022/01/26 01:48:41;;;;;;;37.95;15.65;;;4.50;81.90;;;;;;5027324;28;20076;-76
2022/01/26 01:51:10;;;;;;;40.70;16.30;;;4.50;82.10;;;;;;5017360;28;20033;-76
2022/01/26 01:56:02;;;;;;;28.95;13.13;;;4.20;81.10;;;;;;5056990;28;20240;-76
2022/01/26 01:58:29;;;;;;;35.30;14.85;;;3.90;81.90;;;;;;5052079;28;20061;-76
2022/01/26 02:00:55;;;;;;;35.80;15.25;;;3.90;82.90;;;;;;5036720;28;20022;-76
2022/01/26 02:03:21;;;;;;;32.70;15.40;;;4.10;83.20;;;;;;5037388;28;20112;-76
2022/01/26 02:05:46;;;;;;;37.92;15.88;;;4.20;82.60;;;;;;5034427;28;20064;-76
2022/01/26 02:08:12;;;;;;;35.05;14.05;;;4.30;82.30;;;;;;5017030;28;20038;-76
2022/01/26 02:10:38;;;;;;;36.13;13.63;;;4.20;81.80;;;;;;5015750;28;20033;-76
2022/01/26 02:13:17;;;;;;;32.97;14.85;;;4.20;81.80;;;;;;5048740;28;20033;-76
2022/01/26 03:04:42;;;;;;;23.13;10.32;;;2.90;83.20;;;;;;5016379;28;20045;-76
2022/01/26 03:07:24;;;;;;;23.20;10.32;;;2.80;84.20;;;;;;5015264;28;20061;-76
2022/01/26 03:10:01;;;;;;;18.02;10.15;;;2.60;84.90;;;;;;5014678;28;20033;-76
2022/01/26 03:12:39;;;;;;;25.13;9.85;;;2.70;85.20;;;;;;5015684;28;20029;-76
2022/01/26 03:21:07;;;;;;;14.13;7.97;;;2.90;84.10;;;;;;4997854;28;20136;-77
2022/01/26 03:34:20;;;;;;;22.80;9.80;;;2.90;83.80;;;;;;5035346;28;20033;-76
2022/01/26 03:36:50;;;;;;;22.27;9.07;;;3.00;83.50;;;;;;5028622;28;20069;-76
2022/01/26 03:39:18;;;;;;;23.73;10.45;;;3.10;82.00;;;;;;5030977;28;20030;-76
2022/01/26 03:44:14;;;;;;;23.70;11.18;;;3.10;82.70;;;;;;5015232;28;20124;-76
2022/01/26 03:46:41;;;;;;;23.70;11.38;;;3.10;81.90;;;;;;5015311;28;20518;-76
2022/01/26 03:49:08;;;;;;;20.35;10.35;;;3.10;82.10;;;;;;5015358;28;20037;-76
2022/01/26 03:51:35;;;;;;;23.23;10.73;;;3.10;82.20;;;;;;5014072;28;20090;-76
2022/01/26 03:54:01;;;;;;;22.70;11.63;;;3.00;82.10;;;;;;5037985;28;20029;-76
2022/01/26 03:56:27;;;;;;;24.42;10.70;;;3.00;82.20;;;;;;5017818;28;20018;-76
2022/01/26 03:58:53;;;;;;;19.30;10.85;;;2.90;81.80;;;;;;5029419;28;20080;-75
2022/01/26 04:01:19;;;;;;;22.17;11.10;;;2.90;82.20;;;;;;5015004;28;20453;-76
2022/01/26 04:03:44;;;;;;;25.73;10.57;;;2.90;82.00;;;;;;5015120;28;20037;-75
2022/01/26 04:06:10;;;;;;;18.45;8.95;;;2.90;81.50;;;;;;5015218;28;20026;-76
2022/01/26 04:08:38;;;;;;;21.25;9.60;;;2.60;81.40;;;;;;5046697;28;20065;-76
2022/01/26 04:13:30;;;;;;;20.35;10.45;;;2.60;82.50;;;;;;5035074;28;20037;-76
2022/01/26 04:15:55;;;;;;;27.23;10.93;;;2.80;82.60;;;;;;5034695;28;20108;-76
2022/01/26 04:18:24;;;;;;;27.88;12.35;;;2.70;80.90;;;;;;5035949;28;20021;-76
2022/01/26 04:20:53;;;;;;;20.63;9.93;;;2.80;81.80;;;;;;5033999;28;20108;-76
2022/01/26 04:23:27;;;;;;;30.08;12.68;;;2.80;80.80;;;;;;5019090;28;20121;-76
2022/01/26 04:25:54;;;;;;;26.38;12.52;;;2.90;81.30;;;;;;5017653;28;20037;-76
2022/01/26 04:28:37;;;;;;;27.00;11.20;;;2.90;81.60;;;;;;5017566;28;20555;-76
2022/01/26 04:31:03;;;;;;;24.63;11.52;;;3.00;81.20;;;;;;5018589;28;20089;-76
2022/01/26 04:33:32;;;;;;;20.73;10.77;;;3.20;81.20;;;;;;5018679;28;20547;-76
2022/01/26 04:35:58;;;;;;;24.17;11.15;;;3.20;80.40;;;;;;5018597;28;20088;-76
2022/01/26 04:38:31;;;;;;;28.35;10.73;;;3.10;80.20;;;;;;5018834;28;20026;-76
2022/01/26 04:41:17;;;;;;;30.35;14.20;;;3.10;80.70;;;;;;5017820;28;20049;-76
2022/01/26 04:43:46;;;;;;;24.20;11.57;;;2.90;80.30;;;;;;5017267;28;20061;-76
2022/01/26 04:46:11;;;;;;;26.13;12.02;;;3.00;81.10;;;;;;5017244;28;20392;-76
2022/01/26 04:48:37;;;;;;;27.33;12.07;;;2.90;80.40;;;;;;5018463;28;20074;-75
2022/01/26 04:51:03;;;;;;;28.65;12.32;;;2.90;81.10;;;;;;5016998;28;20030;-76
2022/01/26 04:53:28;;;;;;;24.65;10.68;;;2.80;80.90;;;;;;5031116;28;20068;-76
2022/01/26 04:55:54;;;;;;;28.98;13.00;;;2.90;81.10;;;;;;5028551;28;20025;-76
2022/01/26 04:58:20;;;;;;;30.17;12.55;;;2.80;81.40;;;;;;5017129;28;20108;-76
2022/01/26 05:00:45;;;;;;;30.05;12.10;;;2.80;81.40;;;;;;5018147;28;20022;-76
2022/01/26 05:03:11;;;;;;;29.83;12.90;;;2.80;81.50;;;;;;5016793;28;20038;-76
2022/01/26 05:05:37;;;;;;;27.30;12.25;;;2.70;81.40;;;;;;5016902;28;20503;-76
2022/01/26 05:08:03;;;;;;;25.98;10.75;;;2.80;81.30;;;;;;5016641;28;20492;-76
2022/01/26 05:10:29;;;;;;;25.73;11.10;;;2.90;81.10;;;;;;5018367;28;20036;-76
2022/01/26 05:13:02;;;;;;;26.58;11.23;;;2.80;80.40;;;;;;5017971;28;20476;-76
2022/01/26 05:15:28;;;;;;;15.20;6.97;;;2.70;81.10;;;;;;5018064;28;20511;-76
2022/01/26 05:17:53;;;;;;;27.50;12.13;;;2.70;80.80;;;;;;5016802;28;20026;-76
2022/01/26 05:20:19;;;;;;;26.33;13.25;;;2.70;81.10;;;;;;5016897;28;20562;-76
2022/01/26 05:22:45;;;;;;;30.15;12.38;;;2.60;81.40;;;;;;5016660;28;20029;-76
2022/01/26 05:25:12;;;;;;;26.15;12.52;;;2.60;81.30;;;;;;5016606;28;20144;-76
2022/01/26 05:27:38;;;;;;;27.85;11.02;;;2.60;81.60;;;;;;5016178;28;20097;-75
2022/01/26 05:30:05;;;;;;;30.95;13.38;;;2.80;81.70;;;;;;5017057;28;20045;-75
2022/01/26 05:32:31;;;;;;;29.13;12.55;;;2.70;81.30;;;;;;5016237;28;20522;-76
2022/01/26 05:34:56;;;;;;;28.67;12.45;;;2.70;81.50;;;;;;5017904;28;20052;-76
2022/01/26 05:37:23;;;;;;;25.80;12.52;;;2.80;81.60;;;;;;5016283;28;20173;-76
2022/01/26 05:39:49;;;;;;;31.63;12.70;;;2.70;81.20;;;;;;5016253;28;20034;-76
2022/01/26 05:42:17;;;;;;;28.88;10.52;;;2.70;81.90;;;;;;5017615;28;20510;-76
2022/01/26 05:44:44;;;;;;;30.98;12.40;;;2.70;81.30;;;;;;5017430;28;20037;-76
2022/01/26 05:47:15;;;;;;;27.67;11.70;;;2.70;81.40;;;;;;5015861;28;20033;-75
2022/01/26 05:49:41;;;;;;;27.20;12.38;;;2.70;81.50;;;;;;5016086;28;20112;-76
2022/01/26 12:04:39;;;;;;;43.47;17.20;;;4.20;82.40;;;;;;5061168;28;20825;-77
2022/01/26 12:07:23;;;;;;;37.90;17.25;;;4.40;82.40;;;;;;5067234;28;20037;-76
2022/01/26 12:09:49;;;;;;;46.83;18.25;;;4.80;81.60;;;;;;5050074;28;20057;-77
2022/01/26 12:12:19;;;;;;;46.20;16.73;;;5.20;81.10;;;;;;5050605;28;20514;-77
2022/01/26 12:14:58;;;;;;;;;;;5.40;79.20;;;;;;5051842;28;20826;-77
2022/01/26 12:17:27;;;;;;;45.60;17.15;;;5.70;78.30;;;;;;5046821;28;19999;-77
2022/01/26 12:37:10;;;;;;;50.85;19.38;;;6.30;75.60;;;;;;5051308;28;20111;-76
2022/01/26 12:45:15;;;;;;;51.83;18.90;;;6.80;75.00;;;;;;5048490;28;20443;-77
2022/01/26 12:47:42;;;;;;;49.92;18.80;;;6.70;74.10;;;;;;5048451;28;20033;-76
2022/01/26 12:50:08;;;;;;;43.78;17.30;;;6.80;75.10;;;;;;5047211;28;20036;-76
2022/01/26 12:52:35;;;;;;;38.90;16.52;;;6.80;74.80;;;;;;5048874;28;20060;-77
2022/01/26 12:55:00;;;;;;;50.65;19.95;;;6.70;74.30;;;;;;5046990;28;20041;-76
2022/01/26 12:57:26;;;;;;;50.45;19.10;;;6.80;74.70;;;;;;5047205;28;20048;-77
2022/01/26 13:00:04;;;;;;;44.35;16.73;;;6.90;74.60;;;;;;5050220;28;20032;-76
2022/01/26 13:02:29;;;;;;;49.67;20.33;;;6.90;74.10;;;;;;5047949;28;20032;-77
2022/01/26 13:05:04;;;;;;;41.13;17.40;;;7.00;74.10;;;;;;5050052;28;20025;-77
2022/01/26 13:07:30;;;;;;;44.10;18.33;;;7.00;73.70;;;;;;5048858;28;20021;-77
2022/01/26 13:09:56;;;;;;;46.53;19.13;;;7.00;73.60;;;;;;5049892;28;20025;-77
2022/01/26 13:12:32;;;;;;;41.35;17.77;;;7.20;73.80;;;;;;5049730;28;20498;-76
2022/01/26 13:15:14;;;;;;;43.83;17.13;;;7.10;74.20;;;;;;5042993;28;20030;-77
2022/01/26 13:17:46;;;;;;;47.88;18.80;;;7.20;73.40;;;;;;5036352;28;20483;-77
2022/01/26 13:25:39;;;;;;;44.28;18.83;;;7.20;72.80;;;;;;5037224;28;20017;-77
2022/01/26 13:34:18;;;;;;;43.92;18.60;;;7.20;73.40;;;;;;5022535;28;20041;-75
2022/01/26 13:36:47;;;;;;;47.55;19.52;;;7.20;73.20;;;;;;5037318;28;20075;-74
2022/01/26 13:41:55;;;;;;;44.78;18.77;;;7.30;73.10;;;;;;5037393;28;20121;-75
2022/01/26 13:47:20;;;;;;;44.97;18.95;;;7.60;72.60;;;;;;5036716;28;20093;-75
2022/01/26 13:52:28;;;;;;;45.33;18.70;;;7.30;72.30;;;;;;5036752;28;20017;-75
2022/01/26 13:59:56;;;;;;;45.00;18.48;;;6.80;73.10;;;;;;5036588;28;20022;-74
2022/01/26 14:02:23;;;;;;;44.75;20.33;;;6.80;74.20;;;;;;5036894;28;20101;-75
2022/01/26 14:04:49;;;;;;;50.97;19.85;;;6.80;74.00;;;;;;5036546;28;20021;-75
2022/01/26 14:07:14;;;;;;;46.05;18.67;;;6.80;74.00;;;;;;5036328;28;20495;-75
2022/01/26 14:09:41;;;;;;;48.20;19.38;;;6.90;74.10;;;;;;5036345;28;20029;-75
2022/01/26 14:12:11;;;;;;;44.17;18.75;;;6.90;74.10;;;;;;5036600;28;20029;-75
2022/01/26 14:14:42;;;;;;;40.90;19.83;;;7.10;73.80;;;;;;5035929;28;20060;-75
2022/01/26 14:17:15;;;;;;;37.40;18.70;;;7.00;73.00;;;;;;5036698;28;20029;-75
2022/01/26 14:27:46;;;;;;;46.00;19.10;;;6.80;73.50;;;;;;5016658;28;20455;-74
2022/01/26 14:35:25;;;;;;;44.50;18.83;;;6.90;73.40;;;;;;5036416;28;20116;-75
2022/01/26 14:50:57;;;;;;;47.97;19.40;;;6.90;73.30;;;;;;5035626;28;20518;-74
2022/01/26 15:40:00;;;;;;;47.63;19.40;;;6.70;73.80;;;;;;5034040;28;20491;-75
2022/01/26 15:40:25;;;;;;;45.53;19.95;;;6.70;73.80;;;;;;5032968;28;20041;-75
2022/01/26 15:50:49;;;;;;;48.65;19.52;;;6.50;75.10;;;;;;5033041;28;20110;-76
2022/01/26 15:58:50;;;;;;;58.00;23.85;;;6.50;74.70;;;;;;5033347;28;20114;-75
2022/01/26 16:37:40;;;;;;;51.60;21.27;;;6.60;75.50;;;;;;5034150;28;20473;-74
2022/01/26 18:17:30;;;;;;;56.17;24.17;;;5.70;78.50;;;;;;5045686;28;20122;-80
2022/01/26 18:49:34;;;;;;;73.82;33.05;;;6.00;78.00;;;;;;5032496;28;20510;-80
2022/01/26 18:52:01;;;;;;;62.42;30.33;;;6.00;78.20;;;;;;5033716;28;20025;-82
2022/01/26 18:54:32;;;;;;;62.33;29.10;;;6.00;78.20;;;;;;5034619;28;20025;-81
2022/01/26 18:57:14;;;;;;;63.88;31.30;;;6.00;78.20;;;;;;5033574;28;20037;-81
2022/01/26 18:59:40;;;;;;;64.53;32.35;;;5.90;78.00;;;;;;5032339;28;20037;-79
2022/01/26 19:02:07;;;;;;;63.33;30.02;;;6.00;78.10;;;;;;5033342;28;20105;-80
2022/01/26 19:04:42;;;;;;;62.25;28.88;;;6.00;78.20;;;;;;5032871;28;20119;-80
2022/01/26 19:07:09;;;;;;;63.20;27.73;;;6.00;78.30;;;;;;5030455;28;20017;-79
2022/01/26 19:09:42;;;;;;;63.97;29.48;;;6.00;78.20;;;;;;5034091;28;20097;-80
2022/01/26 19:12:12;;;;;;;49.85;23.38;;;6.10;78.10;;;;;;5030823;28;20005;-79
2022/01/26 19:14:46;;;;;;;52.80;23.48;;;6.10;77.80;;;;;;5034050;28;20029;-79
2022/01/26 19:17:22;;;;;;;59.80;24.70;;;6.10;77.70;;;;;;5032126;28;20029;-78
2022/01/26 19:23:02;;;;;;;55.63;24.95;;;6.00;77.90;;;;;;5033129;28;20219;-79
2022/01/26 19:28:18;;;;;;;55.20;26.00;;;6.00;77.90;;;;;;5033672;28;20491;-78
2022/01/26 19:44:30;;;;;;;59.90;26.77;;;5.90;77.90;;;;;;5028535;28;20033;-79
2022/01/26 19:52:12;;;;;;;66.30;28.98;;;5.90;78.00;;;;;;5033544;28;20032;-78
2022/01/26 19:54:42;;;;;;;64.70;30.35;;;5.80;78.10;;;;;;5033592;28;20029;-79
2022/01/26 19:57:08;;;;;;;67.55;27.98;;;5.80;78.00;;;;;;5032254;28;20095;-78
2022/01/26 19:59:36;;;;;;;61.35;28.85;;;5.80;77.70;;;;;;5034384;28;20557;-77
2022/01/26 20:02:02;;;;;;;65.47;28.17;;;5.90;78.10;;;;;;5018419;28;20064;-78
2022/01/26 20:04:30;;;;;;;62.05;28.05;;;5.90;77.90;;;;;;5033934;28;20049;-76
2022/01/26 20:07:01;;;;;;;59.25;28.67;;;5.90;77.90;;;;;;5031663;28;20057;-76
2022/01/26 20:09:35;;;;;;;73.28;31.60;;;6.00;77.90;;;;;;5027603;28;20152;-84
2022/01/26 20:12:06;;;;;;;66.28;28.17;;;6.00;77.60;;;;;;5048312;28;20085;-79
2022/01/26 20:14:32;;;;;;;64.93;27.58;;;5.90;77.80;;;;;;5026557;28;20496;-76
2022/01/26 20:17:05;;;;;;;62.83;27.20;;;5.90;77.90;;;;;;5031838;28;20052;-77
2022/01/26 20:19:34;;;;;;;59.65;26.38;;;5.90;77.70;;;;;;5029991;28;20075;-79
2022/01/26 20:22:01;;;;;;;57.53;27.20;;;5.80;77.90;;;;;;5032169;28;20029;-78
2022/01/26 20:24:27;;;;;;;69.35;29.70;;;5.80;78.30;;;;;;5033308;28;20045;-80
2022/01/26 20:26:54;;;;;;;58.88;27.05;;;5.80;78.20;;;;;;5069126;28;20526;-78
2022/01/26 20:29:29;;;;;;;54.00;25.35;;;5.80;78.30;;;;;;5070139;28;20447;-81
2022/01/26 20:31:55;;;;;;;61.28;29.10;;;5.90;78.30;;;;;;5050057;28;20030;-79
2022/01/26 20:34:23;;;;;;;61.58;27.48;;;5.80;77.70;;;;;;5036932;28;20028;-78
2022/01/26 20:36:49;;;;;;;60.63;27.63;;;5.90;78.20;;;;;;5042647;28;20491;-78
2022/01/26 20:39:14;;;;;;;56.28;26.65;;;5.80;77.90;;;;;;5036909;28;20033;-78
2022/01/26 20:41:40;;;;;;;59.05;26.15;;;5.90;78.10;;;;;;5036504;28;20510;-79
2022/01/26 20:44:06;;;;;;;56.72;27.73;;;5.80;77.60;;;;;;5037223;28;20452;-79
2022/01/26 20:46:32;;;;;;;61.70;27.25;;;5.80;78.20;;;;;;5035517;28;20030;-80
2022/01/26 20:48:58;;;;;;;65.03;26.92;;;5.80;78.40;;;;;;5035845;28;20026;-77
2022/01/26 20:51:26;;;;;;;67.07;27.92;;;5.80;78.20;;;;;;5036997;28;20506;-77
2022/01/26 20:53:54;;;;;;;64.00;25.33;;;5.90;78.00;;;;;;5038386;28;20111;-77
2022/01/26 20:56:21;;;;;;;66.30;27.20;;;5.90;78.30;;;;;;5040537;28;20108;-77
2022/01/26 20:58:47;;;;;;;68.57;28.77;;;5.80;78.20;;;;;;5033692;28;20177;-77
2022/01/26 21:01:14;;;;;;;66.05;29.70;;;5.80;78.50;;;;;;5031403;28;20033;-77
2022/01/26 21:03:41;;;;;;;54.83;27.20;;;5.80;78.70;;;;;;5031721;28;20041;-78
2022/01/26 21:06:06;;;;;;;61.58;27.73;;;5.80;78.70;;;;;;5036040;28;20143;-77
2022/01/26 21:08:33;;;;;;;67.00;28.77;;;5.90;78.50;;;;;;5035901;28;20100;-77
2022/01/26 21:11:00;;;;;;;64.05;29.48;;;6.00;78.20;;;;;;5034038;28;20025;-77
2022/01/26 21:13:25;;;;;;;66.60;28.98;;;6.00;77.90;;;;;;5033866;28;20058;-78
2022/01/26 21:15:51;;;;;;;70.15;30.08;;;6.00;78.20;;;;;;5026277;28;20488;-77
2022/01/26 21:18:18;;;;;;;78.32;34.33;;;5.90;78.10;;;;;;5034276;28;20020;-78
2022/01/26 21:20:44;;;;;;;64.03;29.58;;;5.80;78.40;;;;;;5036094;28;20033;-77
2022/01/26 21:23:11;;;;;;;72.18;31.88;;;5.90;78.40;;;;;;5028881;28;20079;-77
2022/01/26 21:25:36;;;;;;;74.78;33.17;;;6.00;78.10;;;;;;5028571;28;20022;-77
2022/01/26 21:28:04;;;;;;;77.78;32.63;;;6.00;77.90;;;;;;5031772;28;20071;-78
2022/01/26 21:30:31;;;;;;;68.32;31.73;;;6.00;78.10;;;;;;5025725;28;20041;-84
2022/01/26 21:32:57;;;;;;;64.32;31.05;;;6.00;78.20;;;;;;5033929;28;20036;-79
2022/01/26 21:35:23;;;;;;;67.63;29.70;;;6.00;78.20;;;;;;5035143;28;20116;-81
2022/01/26 21:37:50;;;;;;;69.90;29.50;;;6.10;78.00;;;;;;5067300;28;20026;-80
2022/01/26 21:40:16;;;;;;;66.55;30.13;;;6.00;77.90;;;;;;5035039;28;20029;-82
2022/01/26 21:42:42;;;;;;;72.70;32.20;;;6.00;78.00;;;;;;5033062;28;20021;-77
2022/01/26 21:45:08;;;;;;;77.50;33.85;;;6.00;78.10;;;;;;5032997;28;20036;-79
2022/01/26 21:47:34;;;;;;;65.25;31.52;;;6.00;77.90;;;;;;5030685;28;20120;-80
2022/01/26 21:50:00;;;;;;;68.35;30.80;;;6.00;78.10;;;;;;5034012;28;20049;-79
2022/01/26 21:52:29;;;;;;;68.18;29.85;;;6.00;78.10;;;;;;5034985;28;20021;-79
2022/01/26 21:54:54;;;;;;;66.72;29.52;;;6.00;77.60;;;;;;5043756;28;20029;-79
2022/01/26 21:57:20;;;;;;;66.00;27.98;;;5.90;78.20;;;;;;5034534;28;20032;-79
2022/01/26 21:59:48;;;;;;;63.25;27.00;;;6.00;78.40;;;;;;5035788;28;20033;-79
2022/01/26 22:02:14;;;;;;;61.65;27.85;;;5.90;78.80;;;;;;5034008;28;20021;-80
2022/01/26 22:04:40;;;;;;;57.88;27.80;;;5.90;78.90;;;;;;5027761;28;20041;-79
2022/01/26 22:07:06;;;;;;;63.72;29.38;;;5.90;78.70;;;;;;5037034;28;20132;-79
2022/01/26 22:09:33;;;;;;;75.85;31.73;;;6.00;78.40;;;;;;5036102;28;20033;-79
2022/01/26 22:12:00;;;;;;;60.00;27.95;;;6.10;78.30;;;;;;5037125;28;20018;-79
2022/01/26 22:14:26;;;;;;;67.03;28.70;;;6.10;78.10;;;;;;5036132;28;20025;-79
2022/01/26 22:16:51;;;;;;;63.72;30.48;;;6.00;78.20;;;;;;5034998;28;20040;-79
2022/01/26 22:19:17;;;;;;;81.82;32.65;;;6.00;78.00;;;;;;5034098;28;20061;-78
2022/01/26 22:21:43;;;;;;;66.00;31.45;;;6.10;78.10;;;;;;5034333;28;20041;-79
2022/01/26 22:24:11;;;;;;;66.95;30.38;;;6.10;78.00;;;;;;5034241;28;20025;-78
2022/01/26 22:26:37;;;;;;;71.95;29.48;;;6.00;77.80;;;;;;5035059;28;20028;-79
2022/01/26 22:29:04;;;;;;;59.35;28.60;;;5.90;78.40;;;;;;5035598;28;20018;-79
2022/01/26 22:31:30;;;;;;;57.75;28.90;;;5.90;78.50;;;;;;5031731;28;20033;-79
2022/01/26 22:34:03;;;;;;;63.78;27.50;;;6.00;78.50;;;;;;5016873;28;20033;-78
2022/01/26 22:36:29;;;;;;;63.15;27.70;;;6.00;78.50;;;;;;5034483;28;20025;-78
2022/01/26 22:38:55;;;;;;;60.55;27.48;;;6.00;78.40;;;;;;5034944;28;20492;-78
2022/01/26 22:41:21;;;;;;;64.95;28.60;;;6.00;78.30;;;;;;5035790;28;20029;-79
2022/01/26 22:43:47;;;;;;;62.17;27.88;;;6.00;78.10;;;;;;5036190;28;20476;-79
2022/01/26 22:46:13;;;;;;;67.25;28.48;;;6.00;78.20;;;;;;5035288;28;20029;-79
2022/01/26 22:48:39;;;;;;;60.78;27.48;;;6.00;78.10;;;;;;5035134;28;20109;-79
2022/01/26 22:51:07;;;;;;;68.47;29.92;;;6.00;78.20;;;;;;5035814;28;20029;-78
2022/01/26 22:53:33;;;;;;;61.63;29.75;;;6.00;78.20;;;;;;5041355;28;20119;-79
2022/01/26 22:56:00;;;;;;;59.85;29.92;;;6.00;78.10;;;;;;5055325;28;20053;-79
2022/01/26 22:58:27;;;;;;;68.85;29.83;;;6.00;78.00;;;;;;5048764;28;20026;-79
2022/01/26 23:03:39;;;;;;;71.45;29.48;;;6.00;78.00;;;;;;5035697;28;20064;-79
2022/01/26 23:08:33;;;;;;;68.85;27.88;;;6.00;78.20;;;;;;5035915;28;20036;-79
2022/01/26 23:11:00;;;;;;;66.25;30.17;;;6.00;78.10;;;;;;5035257;28;20021;-79
2022/01/26 23:13:28;;;;;;;65.68;29.45;;;6.00;78.10;;;;;;5034896;28;20069;-79
2022/01/26 23:15:53;;;;;;;63.47;27.95;;;6.00;78.10;;;;;;5034837;28;20064;-79
2022/01/26 23:18:19;;;;;;;68.60;29.42;;;6.00;78.20;;;;;;5035307;28;20519;-79
2022/01/26 23:20:45;;;;;;;66.85;29.25;;;6.00;78.20;;;;;;5035143;28;20021;-79
2022/01/26 23:23:10;;;;;;;57.78;28.35;;;6.00;78.30;;;;;;5034024;28;20109;-79
2022/01/26 23:33:43;;;;;;;58.38;27.27;;;5.90;78.50;;;;;;5015784;28;20103;-79
